createdAt,value
2023-05-19T00:00:21.297Z,95.97
2023-05-19T00:01:17.315Z,95.99
2023-05-19T00:01:49.979Z,96.01
2023-05-19T00:02:25.551Z,95.98
2023-05-19T00:02:59.989Z,95.98
2023-05-19T00:03:33.423Z,96.10
2023-05-19T00:04:06.584Z,95.97
2023-05-19T00:04:40.275Z,95.95
2023-05-19T00:05:14.674Z,95.92
2023-05-19T00:05:48.454Z,96.08
2023-05-19T00:06:26.401Z,96.18
2023-05-19T00:06:59.948Z,96.00
2023-05-19T00:07:33.334Z,96.22
2023-05-19T00:08:06.541Z,96.27
2023-05-19T00:08:38.717Z,96.04
2023-05-19T00:09:12.322Z,96.15
2023-05-19T00:09:44.621Z,95.90
2023-05-19T00:10:17.786Z,96.08
2023-05-19T00:10:50.258Z,96.06
2023-05-19T00:11:22.621Z,95.99
2023-05-19T00:11:56.326Z,96.07
2023-05-19T00:12:28.585Z,96.14
2023-05-19T00:13:01.132Z,96.14
2023-05-19T00:13:33.588Z,96.09
2023-05-19T00:14:08.929Z,96.06
2023-05-19T00:14:41.429Z,96.20
2023-05-19T00:15:14.544Z,96.22
2023-05-19T00:15:46.817Z,96.15
2023-05-19T00:16:19.010Z,96.10
2023-05-19T00:16:51.521Z,96.08
2023-05-19T00:17:24.440Z,96.18
2023-05-19T00:17:56.601Z,96.13
2023-05-19T00:18:29.424Z,96.28
2023-05-19T00:19:04.358Z,96.34
2023-05-19T00:19:37.717Z,96.15
2023-05-19T00:20:11.808Z,96.20
2023-05-19T00:20:43.658Z,96.27
2023-05-19T00:21:16.637Z,96.26
2023-05-19T00:21:48.536Z,96.13
2023-05-19T00:22:20.746Z,96.34
2023-05-19T00:22:52.688Z,96.21
2023-05-19T00:23:24.960Z,96.35
2023-05-19T00:23:57.632Z,96.24
2023-05-19T00:24:29.677Z,96.17
2023-05-19T00:25:01.728Z,96.18
2023-05-19T00:25:33.662Z,96.26
2023-05-19T00:26:05.923Z,96.25
2023-05-19T00:26:37.904Z,96.12
2023-05-19T00:27:10.140Z,96.36
2023-05-19T00:27:42.084Z,96.27
2023-05-19T00:28:14.089Z,96.17
2023-05-19T00:28:46.083Z,96.23
2023-05-19T00:29:18.296Z,96.25
2023-05-19T00:29:50.293Z,96.30
2023-05-19T00:30:22.665Z,96.21
2023-05-19T00:30:55.741Z,96.21
2023-05-19T00:31:28.631Z,96.40
2023-05-19T00:32:00.930Z,96.24
2023-05-19T00:32:33.049Z,96.24
2023-05-19T00:33:04.987Z,96.34
2023-05-19T00:33:37.330Z,96.24
2023-05-19T00:34:09.461Z,96.33
2023-05-19T00:34:42.143Z,96.24
2023-05-19T00:35:14.496Z,96.46
2023-05-19T00:35:46.439Z,96.21
2023-05-19T00:36:18.385Z,96.18
2023-05-19T00:36:50.856Z,96.43
2023-05-19T00:37:23.116Z,96.24
2023-05-19T00:37:55.258Z,96.37
2023-05-19T00:38:27.196Z,96.36
2023-05-19T00:38:59.051Z,96.41
2023-05-19T00:39:31.308Z,96.37
2023-05-19T00:40:05.825Z,96.36
2023-05-19T00:40:37.873Z,96.14
2023-05-19T00:41:10.638Z,96.17
2023-05-19T00:41:42.607Z,96.26
2023-05-19T00:42:14.544Z,96.25
2023-05-19T00:42:46.524Z,96.44
2023-05-19T00:43:18.437Z,96.27
2023-05-19T00:43:50.799Z,96.06
2023-05-19T00:44:22.846Z,96.28
2023-05-19T00:44:55.114Z,96.21
2023-05-19T00:45:27.564Z,96.27
2023-05-19T00:46:00.354Z,96.27
2023-05-19T00:46:32.346Z,96.25
2023-05-19T00:47:04.560Z,96.23
2023-05-19T00:47:36.959Z,96.08
2023-05-19T00:48:09.275Z,96.20
2023-05-19T00:48:44.383Z,96.00
2023-05-19T00:49:16.584Z,96.27
2023-05-19T00:49:48.599Z,96.17
2023-05-19T00:50:21.062Z,96.11
2023-05-19T00:50:57.516Z,96.19
2023-05-19T00:51:30.890Z,96.22
2023-05-19T00:52:05.762Z,96.17
2023-05-19T00:52:37.753Z,96.20
2023-05-19T00:53:09.900Z,95.99
2023-05-19T00:53:43.501Z,96.00
2023-05-19T00:54:15.860Z,96.08
2023-05-19T00:54:51.127Z,96.09
2023-05-19T00:55:29.075Z,96.11
2023-05-19T00:56:02.574Z,96.01
2023-05-19T00:56:35.351Z,96.13
2023-05-19T00:57:07.476Z,96.12
2023-05-19T00:57:39.654Z,96.16
2023-05-19T00:58:12.468Z,96.16
2023-05-19T00:58:45.773Z,96.22
2023-05-19T00:59:17.860Z,96.02
2023-05-19T00:59:50.101Z,96.15
2023-05-19T01:00:22.822Z,96.05
2023-05-19T01:01:03.168Z,96.13
2023-05-19T01:01:36.341Z,96.26
2023-05-19T01:02:08.536Z,96.14
2023-05-19T01:02:41.181Z,95.94
2023-05-19T01:03:14.772Z,96.09
2023-05-19T01:03:48.260Z,96.25
2023-05-19T01:04:21.453Z,95.87
2023-05-19T01:04:55.156Z,96.04
2023-05-19T01:05:27.206Z,96.03
2023-05-19T01:06:01.409Z,96.02
2023-05-19T01:06:34.274Z,96.05
2023-05-19T01:07:06.743Z,95.98
2023-05-19T01:07:41.049Z,96.12
2023-05-19T01:08:13.198Z,96.09
2023-05-19T01:08:46.192Z,96.11
2023-05-19T01:09:18.120Z,96.10
2023-05-19T01:09:50.779Z,96.19
2023-05-19T01:10:22.847Z,96.09
2023-05-19T01:10:55.093Z,96.09
2023-05-19T01:11:27.322Z,96.12
2023-05-19T01:12:01.255Z,96.10
2023-05-19T01:12:34.219Z,96.08
2023-05-19T01:13:07.624Z,96.21
2023-05-19T01:13:41.920Z,96.00
2023-05-19T01:14:15.412Z,95.96
2023-05-19T01:14:47.543Z,96.10
2023-05-19T01:15:19.391Z,96.17
2023-05-19T01:16:02.197Z,96.18
2023-05-19T01:16:39.841Z,96.10
2023-05-19T01:17:27.298Z,95.97
2023-05-19T01:18:11.663Z,96.09
2023-05-19T01:18:56.727Z,96.15
2023-05-19T01:20:01.812Z,95.95
2023-05-19T01:20:52.291Z,96.07
2023-05-19T01:21:55.478Z,96.11
2023-05-19T01:22:45.958Z,96.10
2023-05-19T01:23:32.372Z,96.10
2023-05-19T01:24:22.388Z,96.01
2023-05-19T01:25:19.987Z,96.15
2023-05-19T01:26:14.047Z,96.02
2023-05-19T01:27:13.372Z,96.04
2023-05-19T01:27:48.478Z,96.08
2023-05-19T01:28:44.674Z,96.12
2023-05-19T01:29:42.182Z,96.25
2023-05-19T01:30:22.063Z,96.25
2023-05-19T01:30:57.898Z,96.21
2023-05-19T01:31:30.080Z,96.27
2023-05-19T01:32:04.520Z,96.09
2023-05-19T01:32:40.249Z,96.25
2023-05-19T01:33:14.866Z,96.15
2023-05-19T01:33:48.879Z,96.24
2023-05-19T01:34:23.417Z,96.13
2023-05-19T01:34:57.286Z,96.00
2023-05-19T01:35:30.501Z,96.02
2023-05-19T01:36:03.874Z,96.27
2023-05-19T01:36:37.700Z,96.02
2023-05-19T01:37:11.270Z,96.14
2023-05-19T01:37:45.059Z,96.19
2023-05-19T01:38:19.051Z,96.14
2023-05-19T01:38:53.734Z,96.01
2023-05-19T01:39:26.223Z,96.13
2023-05-19T01:39:58.390Z,95.98
2023-05-19T01:40:32.216Z,96.32
2023-05-19T01:41:06.572Z,96.12
2023-05-19T01:41:41.599Z,96.07
2023-05-19T01:42:14.992Z,96.22
2023-05-19T01:42:48.483Z,96.23
2023-05-19T01:43:23.520Z,96.24
2023-05-19T01:43:56.774Z,96.26
2023-05-19T01:44:29.229Z,96.15
2023-05-19T01:45:02.110Z,96.25
2023-05-19T01:45:35.193Z,96.17
2023-05-19T01:46:08.013Z,96.09
2023-05-19T01:46:41.123Z,95.99
2023-05-19T01:47:14.113Z,96.15
2023-05-19T01:47:48.846Z,96.20
2023-05-19T01:48:21.234Z,96.31
2023-05-19T01:48:53.838Z,96.11
2023-05-19T01:49:25.895Z,96.12
2023-05-19T01:49:57.834Z,96.14
2023-05-19T01:50:30.987Z,96.13
2023-05-19T01:51:03.096Z,96.14
2023-05-19T01:51:35.649Z,96.25
2023-05-19T01:52:07.588Z,96.13
2023-05-19T01:52:39.653Z,96.17
2023-05-19T01:53:11.682Z,96.16
2023-05-19T01:53:43.737Z,96.27
2023-05-19T01:54:15.992Z,96.18
2023-05-19T01:54:47.837Z,96.33
2023-05-19T01:55:22.433Z,96.22
2023-05-19T01:55:57.006Z,96.24
2023-05-19T01:56:52.886Z,96.42
2023-05-19T01:57:24.833Z,96.23
2023-05-19T01:58:19.299Z,96.24
2023-05-19T01:59:04.057Z,96.48
2023-05-19T02:00:08.270Z,96.44
2023-05-19T02:01:03.498Z,96.39
2023-05-19T02:02:11.859Z,96.36
2023-05-19T02:02:56.828Z,96.24
2023-05-19T02:03:47.706Z,96.37
2023-05-19T02:04:32.234Z,96.35
2023-05-19T02:05:17.313Z,96.36
2023-05-19T02:05:55.597Z,96.48
2023-05-19T02:06:31.038Z,96.32
2023-05-19T02:07:19.991Z,96.35
2023-05-19T02:08:13.230Z,96.38
2023-05-19T02:08:58.297Z,96.38
2023-05-19T02:09:47.957Z,96.36
2023-05-19T02:10:30.546Z,96.31
2023-05-19T02:11:30.348Z,96.46
2023-05-19T02:12:11.837Z,96.33
2023-05-19T02:12:45.719Z,96.51
2023-05-19T02:13:21.162Z,96.42
2023-05-19T02:13:56.479Z,96.56
2023-05-19T02:14:58.326Z,96.52
2023-05-19T02:15:38.144Z,96.51
2023-05-19T02:16:13.047Z,96.61
2023-05-19T02:16:47.378Z,96.59
2023-05-19T02:17:20.511Z,96.58
2023-05-19T02:17:54.786Z,96.63
2023-05-19T02:18:29.462Z,96.68
2023-05-19T02:19:01.482Z,96.64
2023-05-19T02:19:42.078Z,96.75
2023-05-19T02:20:15.680Z,96.68
2023-05-19T02:20:48.346Z,96.72
2023-05-19T02:21:20.409Z,96.65
2023-05-19T02:21:52.979Z,96.77
2023-05-19T02:22:25.818Z,96.75
2023-05-19T02:22:57.778Z,96.90
2023-05-19T02:23:30.946Z,96.67
2023-05-19T02:24:03.631Z,96.80
2023-05-19T02:24:37.320Z,96.77
2023-05-19T02:25:10.185Z,96.96
2023-05-19T02:25:42.455Z,96.96
2023-05-19T02:26:14.583Z,96.93
2023-05-19T02:26:46.631Z,96.83
2023-05-19T02:27:18.797Z,96.99
2023-05-19T02:27:51.046Z,96.68
2023-05-19T02:28:23.205Z,96.96
2023-05-19T02:28:55.464Z,96.82
2023-05-19T02:29:27.607Z,96.74
2023-05-19T02:29:59.698Z,96.93
2023-05-19T02:30:31.885Z,96.83
2023-05-19T02:31:08.696Z,96.88
2023-05-19T02:31:40.796Z,96.90
2023-05-19T02:32:13.141Z,96.77
2023-05-19T02:32:46.425Z,96.90
2023-05-19T02:33:19.136Z,96.82
2023-05-19T02:33:51.010Z,96.81
2023-05-19T02:34:22.953Z,96.96
2023-05-19T02:34:56.213Z,96.87
2023-05-19T02:35:28.174Z,96.77
2023-05-19T02:36:00.335Z,96.75
2023-05-19T02:36:36.979Z,96.76
2023-05-19T02:37:09.032Z,96.80
2023-05-19T02:37:41.055Z,96.95
2023-05-19T02:38:13.042Z,96.71
2023-05-19T02:38:45.508Z,96.94
2023-05-19T02:39:17.752Z,96.80
2023-05-19T02:39:50.113Z,96.91
2023-05-19T02:40:22.472Z,96.61
2023-05-19T02:40:54.342Z,96.81
2023-05-19T02:41:26.474Z,96.68
2023-05-19T02:41:58.514Z,96.80
2023-05-19T02:42:31.102Z,96.76
2023-05-19T02:43:03.223Z,96.79
2023-05-19T02:43:35.242Z,96.85
2023-05-19T02:44:07.359Z,96.91
2023-05-19T02:44:39.201Z,96.86
2023-05-19T02:45:11.651Z,96.87
2023-05-19T02:45:43.802Z,96.98
2023-05-19T02:46:15.889Z,96.76
2023-05-19T02:46:47.958Z,96.80
2023-05-19T02:47:20.139Z,96.87
2023-05-19T02:47:52.132Z,96.90
2023-05-19T02:48:24.165Z,96.94
2023-05-19T02:48:56.114Z,96.83
2023-05-19T02:49:30.627Z,97.00
2023-05-19T02:50:03.189Z,96.79
2023-05-19T02:50:35.138Z,96.84
2023-05-19T02:51:07.188Z,97.00
2023-05-19T02:51:39.204Z,96.80
2023-05-19T02:52:11.812Z,97.01
2023-05-19T02:52:43.857Z,96.91
2023-05-19T02:53:15.808Z,96.84
2023-05-19T02:53:48.016Z,96.81
2023-05-19T02:54:20.226Z,96.82
2023-05-19T02:54:52.274Z,96.96
2023-05-19T02:55:24.320Z,96.86
2023-05-19T02:55:56.389Z,96.83
2023-05-19T02:56:28.441Z,96.78
2023-05-19T02:57:01.190Z,96.84
2023-05-19T02:57:35.023Z,96.83
2023-05-19T02:58:07.237Z,96.94
2023-05-19T02:58:39.292Z,96.76
2023-05-19T02:59:11.422Z,96.96
2023-05-19T02:59:43.829Z,96.80
2023-05-19T03:00:16.226Z,96.72
2023-05-19T03:00:48.112Z,96.86
2023-05-19T03:01:21.837Z,96.87
2023-05-19T03:02:01.308Z,96.83
2023-05-19T03:02:33.871Z,96.80
2023-05-19T03:03:06.183Z,96.75
2023-05-19T03:03:38.452Z,96.78
2023-05-19T03:04:11.026Z,96.74
2023-05-19T03:04:43.740Z,96.72
2023-05-19T03:05:15.896Z,96.73
2023-05-19T03:05:48.288Z,96.65
2023-05-19T03:06:22.865Z,96.53
2023-05-19T03:06:55.335Z,96.66
2023-05-19T03:07:27.487Z,96.74
2023-05-19T03:07:59.501Z,96.71
2023-05-19T03:08:31.686Z,96.57
2023-05-19T03:09:03.752Z,96.70
2023-05-19T03:09:37.402Z,96.62
2023-05-19T03:10:09.718Z,96.86
2023-05-19T03:10:41.771Z,96.90
2023-05-19T03:11:15.127Z,96.82
2023-05-19T03:11:47.175Z,96.83
2023-05-19T03:12:19.211Z,96.72
2023-05-19T03:12:51.385Z,96.80
2023-05-19T03:13:23.536Z,96.92
2023-05-19T03:13:55.782Z,96.68
2023-05-19T03:14:27.842Z,96.92
2023-05-19T03:15:00.871Z,96.87
2023-05-19T03:15:34.004Z,96.78
2023-05-19T03:16:07.845Z,96.74
2023-05-19T03:16:42.888Z,96.92
2023-05-19T03:17:14.912Z,96.98
2023-05-19T03:17:46.936Z,96.86
2023-05-19T03:18:19.186Z,96.86
2023-05-19T03:18:51.974Z,96.90
2023-05-19T03:19:24.170Z,96.85
2023-05-19T03:19:56.245Z,96.79
2023-05-19T03:20:30.233Z,96.73
2023-05-19T03:21:02.819Z,96.95
2023-05-19T03:21:35.189Z,96.72
2023-05-19T03:22:07.216Z,96.89
2023-05-19T03:22:39.111Z,96.98
2023-05-19T03:23:11.136Z,96.78
2023-05-19T03:23:43.385Z,97.00
2023-05-19T03:24:16.032Z,96.92
2023-05-19T03:24:50.761Z,97.01
2023-05-19T03:25:22.968Z,97.02
2023-05-19T03:25:55.894Z,97.04
2023-05-19T03:26:29.070Z,96.97
2023-05-19T03:27:02.175Z,96.99
2023-05-19T03:27:34.633Z,96.88
2023-05-19T03:28:06.763Z,96.85
2023-05-19T03:28:38.899Z,96.84
2023-05-19T03:29:11.156Z,96.82
2023-05-19T03:29:43.167Z,96.94
2023-05-19T03:30:15.353Z,96.74
2023-05-19T03:30:49.977Z,96.73
2023-05-19T03:31:22.140Z,96.80
2023-05-19T03:31:54.386Z,96.81
2023-05-19T03:32:26.718Z,96.81
2023-05-19T03:33:01.316Z,96.93
2023-05-19T03:33:33.654Z,96.76
2023-05-19T03:34:05.787Z,96.81
2023-05-19T03:34:37.735Z,96.91
2023-05-19T03:35:09.678Z,96.72
2023-05-19T03:35:42.044Z,96.70
2023-05-19T03:36:14.187Z,96.80
2023-05-19T03:36:46.433Z,96.69
2023-05-19T03:37:18.397Z,96.73
2023-05-19T03:37:50.648Z,96.76
2023-05-19T03:38:23.122Z,96.72
2023-05-19T03:38:55.159Z,96.67
2023-05-19T03:39:27.098Z,96.71
2023-05-19T03:39:59.873Z,96.85
2023-05-19T03:40:32.046Z,96.72
2023-05-19T03:41:04.399Z,96.69
2023-05-19T03:41:36.782Z,96.66
2023-05-19T03:42:08.915Z,96.67
2023-05-19T03:42:40.953Z,96.62
2023-05-19T03:43:13.105Z,96.67
2023-05-19T03:43:45.630Z,96.66
2023-05-19T03:44:17.936Z,96.71
2023-05-19T03:44:50.411Z,96.62
2023-05-19T03:45:22.452Z,96.80
2023-05-19T03:45:54.549Z,96.69
2023-05-19T03:46:26.864Z,96.73
2023-05-19T03:46:59.219Z,96.76
2023-05-19T03:47:31.452Z,96.82
2023-05-19T03:48:04.408Z,96.90
2023-05-19T03:48:36.487Z,96.73
2023-05-19T03:49:08.452Z,96.75
2023-05-19T03:49:40.486Z,96.78
2023-05-19T03:50:13.568Z,96.64
2023-05-19T03:50:45.662Z,96.82
2023-05-19T03:51:17.894Z,96.81
2023-05-19T03:51:50.127Z,96.90
2023-05-19T03:52:22.392Z,96.77
2023-05-19T03:52:54.847Z,96.72
2023-05-19T03:53:26.810Z,96.94
2023-05-19T03:53:58.873Z,96.66
2023-05-19T03:54:31.411Z,96.72
2023-05-19T03:55:04.094Z,96.75
2023-05-19T03:55:36.942Z,96.73
2023-05-19T03:56:13.309Z,96.93
2023-05-19T03:56:45.763Z,96.73
2023-05-19T03:57:17.930Z,96.71
2023-05-19T03:57:49.876Z,96.88
2023-05-19T03:58:21.916Z,96.73
2023-05-19T03:58:54.600Z,96.50
2023-05-19T03:59:26.654Z,96.63
2023-05-19T03:59:59.507Z,96.66
2023-05-19T04:00:32.029Z,96.55
2023-05-19T04:01:04.833Z,96.56
2023-05-19T04:01:36.758Z,96.61
2023-05-19T04:02:08.837Z,96.81
2023-05-19T04:02:41.048Z,96.55
2023-05-19T04:03:13.896Z,96.57
2023-05-19T04:03:46.222Z,96.55
2023-05-19T04:04:18.508Z,96.73
2023-05-19T04:04:50.859Z,96.54
2023-05-19T04:05:22.996Z,96.59
2023-05-19T04:05:55.349Z,96.53
2023-05-19T04:06:27.605Z,96.62
2023-05-19T04:06:59.556Z,96.52
2023-05-19T04:07:31.625Z,96.64
2023-05-19T04:08:03.764Z,96.56
2023-05-19T04:08:36.128Z,96.64
2023-05-19T04:09:15.748Z,96.67
2023-05-19T04:09:48.419Z,96.58
2023-05-19T04:10:21.390Z,96.66
2023-05-19T04:10:53.854Z,96.60
2023-05-19T04:11:26.101Z,96.67
2023-05-19T04:11:58.483Z,96.57
2023-05-19T04:12:31.557Z,96.54
2023-05-19T04:13:03.705Z,96.45
2023-05-19T04:13:35.974Z,96.53
2023-05-19T04:14:08.831Z,96.60
2023-05-19T04:14:41.196Z,96.44
2023-05-19T04:15:13.548Z,96.52
2023-05-19T04:15:45.706Z,96.52
2023-05-19T04:16:18.304Z,96.52
2023-05-19T04:16:50.629Z,96.49
2023-05-19T04:17:26.099Z,96.66
2023-05-19T04:17:58.443Z,96.56
2023-05-19T04:18:31.195Z,96.43
2023-05-19T04:19:03.493Z,96.69
2023-05-19T04:19:35.402Z,96.61
2023-05-19T04:20:07.862Z,96.66
2023-05-19T04:20:40.304Z,96.59
2023-05-19T04:21:12.370Z,96.58
2023-05-19T04:21:44.387Z,96.52
2023-05-19T04:22:16.467Z,96.56
2023-05-19T04:22:48.720Z,96.47
2023-05-19T04:23:20.898Z,96.50
2023-05-19T04:23:53.336Z,96.66
2023-05-19T04:24:25.794Z,96.54
2023-05-19T04:24:58.047Z,96.63
2023-05-19T04:25:30.629Z,96.63
2023-05-19T04:26:03.379Z,96.72
2023-05-19T04:26:37.545Z,96.68
2023-05-19T04:27:11.680Z,96.67
2023-05-19T04:27:43.643Z,96.72
2023-05-19T04:28:16.108Z,96.52
2023-05-19T04:28:48.757Z,96.63
2023-05-19T04:29:23.185Z,96.43
2023-05-19T04:29:55.841Z,96.60
2023-05-19T04:30:28.297Z,96.58
2023-05-19T04:31:00.895Z,96.59
2023-05-19T04:31:34.082Z,96.59
2023-05-19T04:32:07.316Z,96.63
2023-05-19T04:32:41.029Z,96.71
2023-05-19T04:33:13.556Z,96.55
2023-05-19T04:33:47.062Z,96.60
2023-05-19T04:34:19.516Z,96.66
2023-05-19T04:34:52.082Z,96.76
2023-05-19T04:35:24.661Z,96.59
2023-05-19T04:35:58.031Z,96.60
2023-05-19T04:36:31.001Z,96.60
2023-05-19T04:37:03.985Z,96.54
2023-05-19T04:37:37.556Z,96.63
2023-05-19T04:38:09.723Z,96.57
2023-05-19T04:38:41.578Z,96.44
2023-05-19T04:39:14.021Z,96.60
2023-05-19T04:39:45.941Z,96.47
2023-05-19T04:40:20.801Z,96.50
2023-05-19T04:40:52.843Z,96.53
2023-05-19T04:41:24.823Z,96.26
2023-05-19T04:41:56.830Z,96.17
2023-05-19T04:42:30.330Z,96.35
2023-05-19T04:43:02.348Z,96.05
2023-05-19T04:43:34.553Z,96.08
2023-05-19T04:44:09.687Z,96.31
2023-05-19T04:44:41.725Z,96.43
2023-05-19T04:45:14.582Z,96.33
2023-05-19T04:45:49.910Z,96.25
2023-05-19T04:46:24.239Z,96.19
2023-05-19T04:46:58.162Z,96.30
2023-05-19T04:47:30.257Z,96.24
2023-05-19T04:48:02.374Z,96.27
2023-05-19T04:48:34.478Z,96.39
2023-05-19T04:49:07.408Z,96.32
2023-05-19T04:49:39.362Z,96.39
2023-05-19T04:50:11.359Z,96.30
2023-05-19T04:50:43.396Z,96.29
2023-05-19T04:51:17.393Z,96.28
2023-05-19T04:51:53.272Z,96.05
2023-05-19T04:52:27.541Z,96.33
2023-05-19T04:52:59.481Z,96.36
2023-05-19T04:53:31.534Z,96.48
2023-05-19T04:54:03.610Z,96.44
2023-05-19T04:54:35.641Z,96.28
2023-05-19T04:55:08.308Z,96.54
2023-05-19T04:55:40.567Z,96.53
2023-05-19T04:56:14.871Z,96.51
2023-05-19T04:56:46.944Z,96.67
2023-05-19T04:57:18.942Z,96.56
2023-05-19T04:57:51.129Z,96.61
2023-05-19T04:58:26.075Z,96.66
2023-05-19T04:58:58.142Z,96.62
2023-05-19T04:59:30.896Z,96.54
2023-05-19T05:00:07.541Z,96.53
2023-05-19T05:00:39.506Z,96.57
2023-05-19T05:01:13.593Z,96.48
2023-05-19T05:01:45.670Z,96.41
2023-05-19T05:02:17.733Z,96.42
2023-05-19T05:02:50.458Z,96.36
2023-05-19T05:03:22.780Z,96.38
2023-05-19T05:03:55.426Z,96.11
2023-05-19T05:04:28.024Z,96.24
2023-05-19T05:05:00.294Z,96.39
2023-05-19T05:05:32.649Z,96.31
2023-05-19T05:06:06.248Z,96.23
2023-05-19T05:06:38.202Z,96.37
2023-05-19T05:07:10.468Z,96.06
2023-05-19T05:07:42.917Z,96.22
2023-05-19T05:08:21.416Z,96.15
2023-05-19T05:08:53.459Z,96.43
2023-05-19T05:09:25.716Z,96.15
2023-05-19T05:09:57.675Z,96.26
2023-05-19T05:10:30.121Z,96.14
2023-05-19T05:11:02.692Z,96.38
2023-05-19T05:11:35.225Z,96.27
2023-05-19T05:12:08.169Z,96.24
2023-05-19T05:12:41.170Z,96.04
2023-05-19T05:13:13.545Z,96.21
2023-05-19T05:13:45.918Z,96.13
2023-05-19T05:14:18.169Z,96.11
2023-05-19T05:14:50.945Z,96.24
2023-05-19T05:15:23.917Z,96.17
2023-05-19T05:15:56.347Z,96.28
2023-05-19T05:16:28.873Z,96.40
2023-05-19T05:17:02.318Z,96.20
2023-05-19T05:17:35.451Z,96.21
2023-05-19T05:18:08.383Z,96.10
2023-05-19T05:18:42.200Z,96.11
2023-05-19T05:19:16.695Z,95.89
2023-05-19T05:19:49.441Z,96.09
2023-05-19T05:20:22.175Z,95.96
2023-05-19T05:20:54.469Z,96.11
2023-05-19T05:21:27.647Z,96.28
2023-05-19T05:22:00.201Z,95.95
2023-05-19T05:22:33.281Z,96.21
2023-05-19T05:23:06.474Z,96.15
2023-05-19T05:23:38.832Z,96.08
2023-05-19T05:24:11.682Z,96.05
2023-05-19T05:24:44.312Z,96.03
2023-05-19T05:25:17.570Z,96.05
2023-05-19T05:25:49.984Z,96.09
2023-05-19T05:26:22.878Z,96.15
2023-05-19T05:26:55.136Z,96.01
2023-05-19T05:27:27.688Z,96.12
2023-05-19T05:28:04.648Z,96.04
2023-05-19T05:28:37.420Z,95.95
2023-05-19T05:29:10.189Z,96.10
2023-05-19T05:29:42.349Z,95.92
2023-05-19T05:30:14.386Z,96.19
2023-05-19T05:30:47.209Z,95.98
2023-05-19T05:31:19.185Z,95.88
2023-05-19T05:31:51.466Z,96.00
2023-05-19T05:32:23.533Z,95.95
2023-05-19T05:32:56.010Z,96.08
2023-05-19T05:33:28.380Z,96.05
2023-05-19T05:34:00.650Z,96.14
2023-05-19T05:34:32.968Z,96.31
2023-05-19T05:35:05.599Z,96.40
2023-05-19T05:35:37.627Z,96.21
2023-05-19T05:36:09.840Z,96.05
2023-05-19T05:36:42.104Z,96.22
2023-05-19T05:37:15.464Z,96.08
2023-05-19T05:37:47.718Z,96.25
2023-05-19T05:38:19.797Z,96.29
2023-05-19T05:38:51.822Z,96.13
2023-05-19T05:39:23.903Z,96.23
2023-05-19T05:39:56.572Z,96.31
2023-05-19T05:40:28.602Z,96.32
2023-05-19T05:41:02.410Z,96.33
2023-05-19T05:41:38.048Z,96.19
2023-05-19T05:42:11.008Z,96.01
2023-05-19T05:42:43.251Z,96.25
2023-05-19T05:43:15.428Z,96.25
2023-05-19T05:43:47.462Z,96.25
2023-05-19T05:44:19.551Z,96.07
2023-05-19T05:44:51.969Z,96.11
2023-05-19T05:45:24.338Z,96.23
2023-05-19T05:45:57.391Z,96.03
2023-05-19T05:46:29.927Z,96.02
2023-05-19T05:47:03.371Z,96.01
2023-05-19T05:47:39.299Z,95.99
2023-05-19T05:48:11.771Z,95.86
2023-05-19T05:48:44.338Z,95.96
2023-05-19T05:49:16.693Z,95.87
2023-05-19T05:49:49.910Z,96.00
2023-05-19T05:50:23.608Z,96.01
2023-05-19T05:50:57.678Z,96.04
2023-05-19T05:51:32.480Z,95.96
2023-05-19T05:52:06.783Z,95.82
2023-05-19T05:52:41.328Z,95.93
2023-05-19T05:53:19.091Z,95.81
2023-05-19T05:53:55.330Z,95.76
2023-05-19T05:54:27.987Z,95.80
2023-05-19T05:55:01.185Z,95.72
2023-05-19T05:55:33.894Z,95.94
2023-05-19T05:56:07.833Z,95.87
2023-05-19T05:56:40.911Z,95.93
2023-05-19T05:57:13.220Z,95.94
2023-05-19T05:57:45.286Z,96.00
2023-05-19T05:58:17.477Z,95.92
2023-05-19T05:58:50.244Z,95.81
2023-05-19T05:59:22.641Z,95.93
2023-05-19T05:59:55.161Z,95.81
2023-05-19T06:00:28.026Z,95.75
2023-05-19T06:01:02.038Z,95.83
2023-05-19T06:01:35.843Z,95.74
2023-05-19T06:02:08.290Z,95.79
2023-05-19T06:02:43.089Z,95.76
2023-05-19T06:03:16.532Z,95.74
2023-05-19T06:03:48.691Z,95.84
2023-05-19T06:04:20.700Z,95.73
2023-05-19T06:04:54.073Z,95.83
2023-05-19T06:05:26.414Z,95.68
2023-05-19T06:05:58.644Z,95.67
2023-05-19T06:06:31.197Z,95.73
2023-05-19T06:07:03.510Z,95.86
2023-05-19T06:07:35.392Z,95.65
2023-05-19T06:08:07.406Z,95.87
2023-05-19T06:08:39.363Z,95.74
2023-05-19T06:09:12.150Z,95.70
2023-05-19T06:09:44.223Z,95.67
2023-05-19T06:10:16.532Z,95.71
2023-05-19T06:10:48.721Z,95.48
2023-05-19T06:11:20.937Z,95.44
2023-05-19T06:11:53.211Z,95.18
2023-05-19T06:12:26.800Z,94.97
2023-05-19T06:12:58.743Z,95.06
2023-05-19T06:13:30.811Z,95.18
2023-05-19T06:14:03.284Z,95.15
2023-05-19T06:14:35.300Z,95.18
2023-05-19T06:15:07.764Z,94.98
2023-05-19T06:15:39.798Z,95.09
2023-05-19T06:16:11.806Z,95.26
2023-05-19T06:16:44.230Z,95.15
2023-05-19T06:17:16.694Z,95.32
2023-05-19T06:17:48.915Z,95.22
2023-05-19T06:18:21.214Z,95.21
2023-05-19T06:18:53.399Z,95.38
2023-05-19T06:19:25.601Z,95.13
2023-05-19T06:19:57.775Z,94.82
2023-05-19T06:20:29.904Z,94.85
2023-05-19T06:21:03.024Z,94.64
2023-05-19T06:21:35.070Z,94.72
2023-05-19T06:22:07.097Z,94.82
2023-05-19T06:22:39.660Z,94.96
2023-05-19T06:23:11.525Z,94.66
2023-05-19T06:23:43.359Z,94.81
2023-05-19T06:24:15.407Z,94.86
2023-05-19T06:24:48.174Z,94.81
2023-05-19T06:25:20.336Z,94.63
2023-05-19T06:25:52.606Z,94.70
2023-05-19T06:26:24.752Z,94.59
2023-05-19T06:26:56.826Z,94.65
2023-05-19T06:27:28.785Z,94.59
2023-05-19T06:28:01.016Z,94.47
2023-05-19T06:28:34.891Z,94.47
2023-05-19T06:29:06.946Z,94.44
2023-05-19T06:29:39.112Z,94.40
2023-05-19T06:30:11.984Z,94.33
2023-05-19T06:30:44.131Z,94.30
2023-05-19T06:31:16.116Z,94.24
2023-05-19T06:31:48.436Z,94.09
2023-05-19T06:32:20.721Z,94.08
2023-05-19T06:32:53.003Z,94.20
2023-05-19T06:33:28.844Z,94.12
2023-05-19T06:34:01.147Z,94.07
2023-05-19T06:34:33.192Z,93.75
2023-05-19T06:35:05.877Z,93.79
2023-05-19T06:35:38.350Z,93.67
2023-05-19T06:36:10.557Z,93.55
2023-05-19T06:36:42.529Z,93.63
2023-05-19T06:37:16.683Z,93.62
2023-05-19T06:37:48.589Z,93.73
2023-05-19T06:38:21.037Z,93.73
2023-05-19T06:38:53.191Z,93.74
2023-05-19T06:39:25.965Z,93.78
2023-05-19T06:39:58.020Z,93.66
2023-05-19T06:40:30.504Z,93.70
2023-05-19T06:41:02.770Z,93.42
2023-05-19T06:41:35.010Z,93.49
2023-05-19T06:42:07.223Z,93.22
2023-05-19T06:42:39.322Z,93.40
2023-05-19T06:43:11.398Z,93.33
2023-05-19T06:43:43.599Z,93.35
2023-05-19T06:44:15.762Z,93.14
2023-05-19T06:44:49.270Z,93.21
2023-05-19T06:45:22.212Z,93.18
2023-05-19T06:45:54.480Z,93.05
2023-05-19T06:46:26.659Z,93.20
2023-05-19T06:46:59.134Z,93.08
2023-05-19T06:47:31.299Z,93.02
2023-05-19T06:48:03.989Z,93.22
2023-05-19T06:48:35.878Z,93.06
2023-05-19T06:49:08.234Z,92.99
2023-05-19T06:49:40.387Z,93.06
2023-05-19T06:50:12.327Z,92.84
2023-05-19T06:50:44.910Z,92.74
2023-05-19T06:51:21.787Z,92.70
2023-05-19T06:51:53.862Z,92.70
2023-05-19T06:52:25.758Z,92.77
2023-05-19T06:52:58.014Z,92.64
2023-05-19T06:53:31.078Z,92.63
2023-05-19T06:54:03.210Z,92.63
2023-05-19T06:54:35.505Z,92.49
2023-05-19T06:55:07.963Z,92.31
2023-05-19T06:55:54.402Z,92.26
2023-05-19T06:56:30.604Z,91.89
2023-05-19T06:57:04.077Z,91.98
2023-05-19T06:57:36.188Z,92.16
2023-05-19T06:58:08.295Z,91.92
2023-05-19T06:58:40.448Z,92.04
2023-05-19T06:59:12.638Z,92.01
2023-05-19T06:59:46.179Z,91.68
2023-05-19T07:00:20.518Z,91.62
2023-05-19T07:00:54.176Z,91.61
2023-05-19T07:01:27.413Z,91.60
2023-05-19T07:01:59.711Z,91.73
2023-05-19T07:02:32.000Z,91.69
2023-05-19T07:03:04.220Z,91.67
2023-05-19T07:03:36.796Z,91.69
2023-05-19T07:04:08.992Z,91.72
2023-05-19T07:04:42.201Z,91.68
2023-05-19T07:05:14.199Z,91.68
2023-05-19T07:05:46.456Z,91.64
2023-05-19T07:06:18.531Z,91.58
2023-05-19T07:06:50.853Z,91.45
2023-05-19T07:07:22.910Z,91.48
2023-05-19T07:07:55.770Z,91.33
2023-05-19T07:08:28.036Z,91.53
2023-05-19T07:09:00.280Z,91.37
2023-05-19T07:09:33.125Z,91.39
2023-05-19T07:10:06.019Z,91.24
2023-05-19T07:10:38.597Z,91.25
2023-05-19T07:11:12.030Z,91.36
2023-05-19T07:11:43.818Z,91.25
2023-05-19T07:12:15.778Z,91.17
2023-05-19T07:12:47.823Z,91.26
2023-05-19T07:13:20.175Z,91.19
2023-05-19T07:13:52.222Z,91.13